Nearby METAR Reports

 

KSFO - San Francisco, California, USA
Distance from station: NNW 8km
Updated: Wed, 16-Jan-2019 8:56am PST
Overcast
Overcast
 Wind from SE
Wind: SE 18 mph , 30 km/h
Temperature: 54°F , 12°C
Dew Point: 48°F , 9°C
Humidity: 82%
Barometer: 29.91 inHg , 1012.9 hPa
Clouds: Overcast
Visibility: 10 miles , 16 km
Cloud details: Few Clouds 2800 ft
Mostly cloudy 3900 ft
Overcast 4800 ft
2019/01/16 16:56 KSFO 161656Z 13016KT 10SM FEW028 BKN039 OVC048 12/09 A2991 RMK AO2 SLP129 T01220094
KSQL - San Carlos Airpo, California, USA
Distance from station: ESE 8km
Updated: Wed, 16-Jan-2019 7:50am PST
NOT Current
Mostly cloudy
Mostly cloudy
 Wind from SE
Wind: SE 12 mph , 19 km/h
Temperature: 57°F , 14°C
Dew Point: 50°F , 10°C
Humidity: 77%
Barometer: 29.95 inHg , 1014.2 hPa
Clouds: Mostly cloudy
Visibility: 10 miles , 16 km
Cloud details: Few Clouds 1500 ft
Mostly cloudy 3000 ft
Mostly cloudy 3600 ft
2019/01/16 15:50 KSQL 161550Z 14010KT 10SM FEW015 BKN030 BKN036 14/10 A2995
 
KHAF - Half Moon Bay, California, USA
Distance from station: WSW 15km
Updated: Wed, 16-Jan-2019 9:20am PST
Overcast
Overcast
 Wind from SSE
Wind: SSE 23 mph , 37 km/h, Gust: 32 mph , 52 km/h
Temperature: 57°F , 14°C
Dew Point: 50°F , 10°C
Humidity: 77%
Barometer: 29.91 inHg , 1012.9 hPa
Clouds: Overcast
Visibility: 7 miles , 11 km
Cloud details: Overcast 3600 ft
2019/01/16 17:20 KHAF 161720Z AUTO 16020G28KT 7SM OVC036 14/10 A2991 RMK AO2
KOAK - Oakland, California, USA
Distance from station: NNE 21km
Updated: Wed, 16-Jan-2019 8:53am PST
Overcast
Overcast
 Wind from SE
Wind: SE 14 mph , 22 km/h
Temperature: 57°F , 14°C
Dew Point: 50°F , 10°C
Humidity: 77%
Barometer: 29.94 inHg , 1013.9 hPa
Clouds: Overcast
Visibility: 10 miles , 16 km
Cloud details: Mostly cloudy 3600 ft
Mostly cloudy 6000 ft
Overcast 18000 ft
2019/01/16 16:53 KOAK 161653Z 13012KT 10SM BKN036 BKN060 OVC180 14/10 A2994 RMK AO2 SLP136 T01390100
 
KPAO - Palo Alto, California, USA
Distance from station: ESE 21km
Updated: Wed, 16-Jan-2019 8:47am PST
Overcast
Overcast
 Wind from SSE
Wind: SSE 25 mph , 41 km/h, Gust: 35 mph , 56 km/h
Temperature: 59°F , 15°C
Dew Point: 50°F , 10°C
Humidity: 72%
Barometer: 29.93 inHg , 1013.5 hPa
Clouds: Overcast
Visibility: 10 miles , 16 km
Cloud details: Partly cloudy 2000 ft
Overcast 10000 ft
2019/01/16 16:47 KPAO 161647Z 15022G30KT 10SM SCT020 OVC100 15/10 A2993
KHWD - Hayward, California, USA
Distance from station: NE 23km
Updated: Wed, 16-Jan-2019 8:54am PST
Mostly cloudy
Mostly cloudy
 Wind from SE
Wind: SE 13 mph , 20 km/h
Temperature: 57°F , 14°C
Dew Point: 48°F , 9°C
Humidity: 72%
Barometer: 29.93 inHg , 1013.5 hPa
Clouds: Mostly cloudy
Visibility: 10 miles , 16 km
Cloud details: Partly cloudy 4900 ft
Mostly cloudy 6000 ft
2019/01/16 16:54 KHWD 161654Z 14011KT 10SM SCT049 BKN060 14/09 A2993 RMK AO2 SLP145 T01440094
 
KNUQ - Moffett Nas/Mtn, California, USA
Distance from station: ESE 30km
Updated: Wed, 16-Jan-2019 8:56am PST
Mostly cloudy
Mostly cloudy
 Wind from ESE
Wind: ESE 7 mph , 11 km/h
Temperature: 55°F , 13°C
Dew Point: 50°F , 10°C
Humidity: 82%
Barometer: 29.95 inHg , 1014.2 hPa
Clouds: Mostly cloudy
Visibility: 10 miles , 16 km
Cloud details: Mostly cloudy 5000 ft
2019/01/16 16:56 KNUQ 161656Z 12006KT 10SM BKN050 13/10 A2995 RMK AO2 SLP143 T01330100
KSJC - San Jose, California, USA
Distance from station: ESE 42km
Updated: Wed, 16-Jan-2019 8:53am PST
Overcast
Overcast
 Wind from ESE
Wind: ESE 17 mph , 28 km/h
Temperature: 55°F , 13°C
Dew Point: 50°F , 10°C
Humidity: 82%
Barometer: 29.94 inHg , 1013.9 hPa
Clouds: Overcast
Visibility: 10 miles , 16 km
Cloud details: Few Clouds 1600 ft
Mostly cloudy 7500 ft
Overcast 11000 ft
2019/01/16 16:53 KSJC 161653Z 12015KT 10SM FEW016 BKN075 OVC110 13/10 A2994 RMK AO2 RAB1555E00B41E51 SLP138 P0000 T01280100
 
KLVK - Livermore, California, USA
Distance from station: ENE 49km
Updated: Wed, 16-Jan-2019 8:53am PST
Mostly cloudy
Mostly cloudy
 Wind from calm
Wind: Calm
Temperature: 55°F , 13°C
Dew Point: 48°F , 9°C
Humidity: 77%
Barometer: 29.95 inHg , 1014.2 hPa
Clouds: Mostly cloudy
Visibility: 10 miles , 16 km
Cloud details: Partly cloudy 4300 ft
Mostly cloudy 6000 ft
2019/01/16 16:53 KLVK 161653Z 00000KT 10SM SCT043 BKN060 13/09 A2995 RMK AO2 SLP139 T01330089
KRHV - San Jose/Reid, California, USA
Distance from station: ESE 53km
Updated: Wed, 16-Jan-2019 8:47am PST
Overcast
Overcast
 Wind from SE
Wind: SE 12 mph , 19 km/h
Temperature: 57°F , 14°C
Dew Point: 50°F , 10°C
Humidity: 77%
Barometer: 29.94 inHg , 1013.9 hPa
Clouds: Overcast
Visibility: 10 miles , 16 km
Cloud details: Few Clouds 2000 ft
Partly cloudy 3000 ft
Overcast 18000 ft
2019/01/16 16:47 KRHV 161647Z 13010KT 10SM FEW020 SCT030 OVC180 14/10 A2994
 
KCCR - Concord, California, USA
Distance from station: NNE 56km
Updated: Wed, 16-Jan-2019 8:53am PST
Overcast
Overcast
 Wind from S
Wind: S 12 mph , 19 km/h
Temperature: 59°F , 15°C
Dew Point: 46°F , 8°C
Humidity: 63%
Barometer: 29.93 inHg , 1013.5 hPa
Clouds: Overcast
Visibility: 10 miles , 16 km
Cloud details: Mostly cloudy 4900 ft
Overcast 6000 ft
2019/01/16 16:53 KCCR 161653Z 17010KT 10SM BKN049 OVC060 15/08 A2993 RMK AO2 SLP120 T01500083
KDVO - Novato/Gnoss Fld, California, USA
Distance from station: NNW 70km
Updated: Wed, 16-Jan-2019 9:15am PST
Overcast
Overcast
 Wind from SE
Wind: SE 8 mph , 13 km/h
Temperature: 55°F , 13°C
Dew Point: 52°F , 11°C
Humidity: 88%
Barometer: 29.92 inHg , 1013.2 hPa
Clouds: Overcast
Visibility: 9 miles , 14 km
Cloud details: Mostly cloudy 3100 ft
Overcast 3600 ft
2019/01/16 17:15 KDVO 161715Z AUTO 14007KT 9SM BKN031 OVC036 13/11 A2992 RMK AO2
 
KAPC - Napa, California, USA
Distance from station: N 73km
Updated: Wed, 16-Jan-2019 8:54am PST
Overcast
Overcast
 Wind from SE
Wind: SE 10 mph , 17 km/h
Temperature: 57°F , 14°C
Dew Point: 50°F , 10°C
Humidity: 77%
Barometer: 29.93 inHg , 1013.5 hPa
Clouds: Overcast
Visibility: 10 miles , 16 km
Cloud details: Few Clouds 4600 ft
Overcast 6500 ft
2019/01/16 16:54 KAPC 161654Z 14009KT 10SM FEW046 OVC065 14/10 A2993 RMK AO2 SLP125 T01390100